Sunday, March 01, 2015
04:25 UTC
  |  Log In   |  Register Free
Airport Search:

Mccarley Fld Airport
(U02)

Mccarley Fld Airport Diagram
No Airport Diagram Available

FAA data valid effective January 08, 2015 - March 05, 2015 (unless otherwise noted).

 
 
 
 
 
 
 
 
 
 
 
 
 
 

Current Aviation Weather for Mccarley Fld Airport (U02)

METAR data is unavailable for U02. The nearest METAR location is at KPIH (21 nm SW from U02).

The most recent METAR observation for KPIH was updated at: 0415
METAR Summary (Translated METAR)
KPIH
010353Z 06010KT 10SM CLR M02/M12 A2995 RMK AO2 SLP170 T10221117
(21 nm SW from U02)
KIDA
010353Z AUTO 35015KT 10SM CLR M03/M12 A2996 RMK AO2 SLP181 T10331117
(22 nm NE from U02)
TAF Summary (Translated TAF)
KPIH
010318Z 0103/0124 02015G25KT P6SM FEW050 FM010600 02010KT P6SM SKC
KIDA
(42.9 nm NE from KPIH)
282054Z 2821/0118 02015KT P6SM FEW070 FM010200 36007KT P6SM SKC
  Airport Weather Conditions for U02

Current weather conditions are
not available for U02


The nearest NOAA weather station
is at PIH, (21 nm SW from U02)
  
 Current Weather at PIH
28° F
Fair
Northeast winds at 11.5 mph
PIH NOAA Radar

Pressure: 29.95 in
Humidity: 49%
Wind: Northeast at 11.5 MPH (10 KT)
Dew Point: 10.9°F
Visibility: 10.00 mi


Airport Weather Forecast for U02

Translated METAR and TAF for KPIH
Translated METAR for KPIH (0425 UTC 01 March 2015)
found at http://aviationweather.gov/adds/metars/
 
METAR text: KPIH 010353Z 06010KT 10SM CLR M02/M12 A2995 RMK AO2 SLP170 T10221117
Conditions at: KPIH (POCATELLO , ID, US) observed 0353 UTC 01 March 2015
Temperature: -2.2°C (28°F)
Dewpoint: -11.7°C (11°F) [RH = 48%]
Pressure (altimeter): 29.95 inches Hg (1014.3 mb)
[Sea-level pressure: 1017.0 mb]
Winds: from the ENE (60 degrees) at 12 MPH (10 knots; 5.2 m/s)
Visibility: 10 or more miles (16+ km)
Ceiling: at least 12,000 feet AGL
Clouds: sky clear below 12,000 feet AGL
Weather: no significant weather observed at this time
Translated TAF for KPIH
Forecast for: KPIH (POCATELLO , ID, US)
TAF Text: KPIH 010318Z 0103/0124 02015G25KT P6SM FEW050
Forecast period: 0300 to 0600 UTC 01 March 2015
Forecast type: FROM: standard forecast or significant change
Winds: from the NNE (20 degrees) at 17 MPH (15 knots; 7.8 m/s)
gusting to 29 MPH (25 knots; 13.0 m/s)
Visibility: 6 or more miles (10+ km)
Clouds: few clouds at 5000 feet AGL
Weather: no significant weather forecast for this period
TAF Text: FM010600 02010KT P6SM SKC
Forecast period: 0600 UTC 01 March 2015 to 0000 UTC 02 March 2015
Forecast type: FROM: standard forecast or significant change
Winds: from the NNE (20 degrees) at 12 MPH (10 knots; 5.2 m/s)
Visibility: 6 or more miles (10+ km)
Clouds: clear skies
Weather: no significant weather forecast for this period

Find All Airport Services Find A Hotel Find A Rental Car Find A Golf Course Find A Restaurant $100 Hamburger



FBO's on the Field
FBO Company Facility Photos Services Transportation Aviation Fuel Prices: Prices include tax
Catering Weather Repair Courtesy Rental Type 100LL JetA JetA+ MOGAS 8087
 
City of Blackfoot

This FBO has not yet been rated
FS:Independent
Last Updated: Jan-29
Login to update fuel prices
SS:
Contact City of BlackfootMore FBO Information
 
Add another FBO Facility Photos Catering Weather Repair Courtesy Rental Type 100LL JetA JetA+ MOGAS 8087
Services Transportation Aviation Fuel Prices: Prices include tax


model-print
model-print
model-print
model-print